createdAt,value
2022-10-12T00:00:35.477Z,99063.41
2022-10-12T00:04:37.387Z,99077.22
2022-10-12T00:08:41.157Z,99074.00
2022-10-12T00:12:43.172Z,99060.66
2022-10-12T00:16:45.212Z,99051.84
2022-10-12T00:20:47.252Z,99053.69
2022-10-12T00:24:49.298Z,99042.47
2022-10-12T00:28:57.655Z,99040.28
2022-10-12T00:32:59.639Z,99032.97
2022-10-12T00:37:01.785Z,99034.63
2022-10-12T00:41:03.767Z,99042.88
2022-10-12T00:45:06.323Z,99049.88
2022-10-12T00:49:27.809Z,99052.06
2022-10-12T00:53:35.915Z,99046.41
2022-10-12T00:57:42.011Z,99058.03
2022-10-12T01:01:46.627Z,99051.91
2022-10-12T01:05:49.721Z,99049.28
2022-10-12T01:09:52.497Z,99058.94
2022-10-12T01:13:54.596Z,99051.09
2022-10-12T01:18:05.477Z,99047.66
2022-10-12T01:22:11.773Z,99044.19
2022-10-12T01:26:34.185Z,99047.63
2022-10-12T01:30:42.006Z,99057.09
2022-10-12T01:34:51.862Z,99061.63
2022-10-12T01:39:03.243Z,99062.69
2022-10-12T01:43:05.358Z,99056.03
2022-10-12T01:47:07.367Z,99052.03
2022-10-12T01:51:12.786Z,99046.38
2022-10-12T01:55:44.241Z,99057.53
2022-10-12T02:00:04.114Z,99056.47
2022-10-12T02:04:12.807Z,99045.81
2022-10-12T02:08:53.670Z,99049.59
2022-10-12T02:12:58.562Z,99047.94
2022-10-12T02:17:06.915Z,99042.59
2022-10-12T02:21:13.067Z,99024.75
2022-10-12T02:25:18.970Z,99021.19
2022-10-12T02:29:26.842Z,99020.84
2022-10-12T02:33:58.842Z,99019.00
2022-10-12T02:38:09.399Z,99012.91
2022-10-12T02:42:18.455Z,99017.94
2022-10-12T02:46:24.519Z,99027.25
2022-10-12T02:50:28.275Z,99018.09
2022-10-12T02:54:31.093Z,99015.94
2022-10-12T02:58:33.398Z,99021.72
2022-10-12T03:02:35.554Z,99026.25
2022-10-12T03:06:37.526Z,99027.59
2022-10-12T03:10:39.503Z,99036.84
2022-10-12T03:14:41.490Z,99022.41
2022-10-12T03:18:44.031Z,99023.25
2022-10-12T03:22:46.995Z,99027.88
2022-10-12T03:26:49.201Z,99026.13
2022-10-12T03:30:51.248Z,99017.44
2022-10-12T03:34:53.214Z,99006.78
2022-10-12T03:38:55.165Z,99013.88
2022-10-12T03:42:57.190Z,99009.66
2022-10-12T03:46:59.193Z,99005.94
2022-10-12T03:51:01.275Z,99005.88
2022-10-12T03:55:03.359Z,99007.81
2022-10-12T03:59:05.641Z,99011.16
2022-10-12T04:03:07.556Z,99012.91
2022-10-12T04:07:09.687Z,99020.13
2022-10-12T04:11:11.994Z,99018.78
2022-10-12T04:15:14.702Z,99030.13
2022-10-12T04:19:16.840Z,99032.09
2022-10-12T04:23:18.894Z,99022.38
2022-10-12T04:27:21.178Z,99033.69
2022-10-12T04:31:23.154Z,99031.00
2022-10-12T04:35:25.268Z,99032.13
2022-10-12T04:39:27.398Z,99038.97
2022-10-12T04:43:29.376Z,99039.81
2022-10-12T04:47:33.326Z,99034.25
2022-10-12T04:51:35.378Z,99046.47
2022-10-12T04:55:37.876Z,99048.03
2022-10-12T04:59:40.021Z,99039.78
2022-10-12T05:03:42.318Z,99040.69
2022-10-12T05:07:44.555Z,99043.28
2022-10-12T05:11:46.727Z,99038.50
2022-10-12T05:16:14.487Z,99034.47
2022-10-12T05:20:16.817Z,99035.25
2022-10-12T05:24:18.752Z,99035.84
2022-10-12T05:28:20.753Z,99040.19
2022-10-12T05:32:22.923Z,99038.47
2022-10-12T05:36:24.939Z,99048.44
2022-10-12T05:40:27.232Z,99058.28
2022-10-12T05:44:29.328Z,99043.84
2022-10-12T05:48:31.426Z,99051.91
2022-10-12T05:52:33.446Z,99053.44
2022-10-12T05:56:35.668Z,99047.50
2022-10-12T06:00:38.458Z,99048.34
2022-10-12T06:04:40.473Z,99049.56
2022-10-12T06:08:42.976Z,99053.34
2022-10-12T06:12:45.228Z,99056.13
2022-10-12T06:16:51.117Z,99063.69
2022-10-12T06:25:18.563Z,99067.22
2022-10-12T06:29:23.433Z,99058.28
2022-10-12T06:33:27.130Z,99066.75
2022-10-12T06:37:49.102Z,99074.56
2022-10-12T06:41:53.082Z,99075.72
2022-10-12T06:45:59.876Z,99081.16
2022-10-12T06:50:01.838Z,99077.19
2022-10-12T06:54:03.894Z,99086.34
2022-10-12T06:58:05.998Z,99094.16
2022-10-12T07:02:11.268Z,99100.09
2022-10-12T07:06:14.359Z,99092.09
2022-10-12T07:10:16.408Z,99101.72
2022-10-12T07:14:18.600Z,99104.94
2022-10-12T07:18:20.898Z,99103.28
2022-10-12T07:22:22.908Z,99103.25
2022-10-12T07:26:24.944Z,99108.28
2022-10-12T07:30:26.967Z,99105.59
2022-10-12T07:34:29.487Z,99108.44
2022-10-12T07:38:32.193Z,99113.19
2022-10-12T07:42:34.273Z,99109.31
2022-10-12T07:46:36.218Z,99108.66
2022-10-12T07:50:39.947Z,99098.88
2022-10-12T07:54:41.988Z,99100.06
2022-10-12T07:58:52.805Z,99097.44
2022-10-12T08:02:54.958Z,99099.69
2022-10-12T08:06:58.176Z,99093.41
2022-10-12T08:11:05.871Z,99087.03
2022-10-12T08:15:08.433Z,99084.31
2022-10-12T08:19:11.119Z,99084.06
2022-10-12T08:23:13.066Z,99077.69
2022-10-12T08:27:15.172Z,99085.75
2022-10-12T08:31:17.892Z,99084.41
2022-10-12T08:35:19.961Z,99073.72
2022-10-12T08:39:22.093Z,99077.53
2022-10-12T08:43:42.306Z,99073.13
2022-10-12T08:47:51.567Z,99069.25
2022-10-12T08:51:56.510Z,99071.56
2022-10-12T08:55:59.203Z,99075.19
2022-10-12T09:00:01.696Z,99073.19
2022-10-12T09:04:17.133Z,99071.50
2022-10-12T09:08:48.076Z,99077.78
2022-10-12T09:13:21.106Z,99078.47
2022-10-12T09:17:38.382Z,99068.97
2022-10-12T09:21:42.829Z,99072.06
2022-10-12T09:25:46.668Z,99066.63
2022-10-12T09:29:53.037Z,99069.81
2022-10-12T09:33:58.370Z,99071.97
2022-10-12T09:38:01.964Z,99068.59
2022-10-12T09:42:04.358Z,99063.19
2022-10-12T09:46:13.445Z,99058.69
2022-10-12T09:50:40.445Z,99063.69
2022-10-12T09:54:52.596Z,99067.56
2022-10-12T09:58:57.868Z,99064.59
2022-10-12T10:03:01.194Z,99059.53
2022-10-12T10:07:33.445Z,99059.94
2022-10-12T10:11:36.205Z,99055.06
2022-10-12T10:15:41.544Z,99049.66
2022-10-12T10:19:54.156Z,99049.22
2022-10-12T10:24:01.851Z,99048.09
2022-10-12T10:28:31.807Z,99046.66
2022-10-12T10:32:33.955Z,99042.34
2022-10-12T10:36:41.031Z,99043.97
2022-10-12T10:40:43.000Z,99042.03
2022-10-12T10:44:59.060Z,99042.66
2022-10-12T10:53:21.580Z,99028.34
2022-10-12T10:57:25.191Z,99024.50
2022-10-12T11:01:36.663Z,99026.41
2022-10-12T11:05:45.560Z,99028.31
2022-10-12T11:09:54.821Z,99025.13
2022-10-12T11:14:07.411Z,99029.56
2022-10-12T11:18:25.865Z,99018.09
2022-10-12T11:22:40.379Z,99027.75
2022-10-12T11:26:50.057Z,99018.31
2022-10-12T11:30:53.304Z,99020.34
2022-10-12T11:35:01.807Z,99023.88
2022-10-12T11:39:08.329Z,99015.13
2022-10-12T11:43:15.766Z,99023.56
2022-10-12T11:47:29.898Z,99009.50
2022-10-12T11:51:31.797Z,99002.31
2022-10-12T11:55:39.918Z,99005.00
2022-10-12T11:59:50.241Z,99003.00
2022-10-12T12:03:55.173Z,98999.75
2022-10-12T12:07:57.090Z,98996.25
2022-10-12T12:12:17.872Z,99004.03
2022-10-12T12:16:19.733Z,98997.75
2022-10-12T12:21:03.652Z,98990.81
2022-10-12T12:25:10.724Z,98988.53
2022-10-12T12:29:29.955Z,98985.09
2022-10-12T12:33:38.640Z,98985.06
2022-10-12T12:37:43.795Z,98979.13
2022-10-12T12:41:56.585Z,98974.25
2022-10-12T12:46:02.176Z,98969.19
2022-10-12T12:50:37.466Z,98960.88
2022-10-12T12:55:00.480Z,98962.56
2022-10-12T12:59:40.058Z,98962.13
2022-10-12T13:04:02.568Z,98957.19
2022-10-12T13:08:35.357Z,98961.63
2022-10-12T13:13:06.657Z,98961.28
2022-10-12T13:17:36.145Z,98958.50
2022-10-12T13:21:45.706Z,98955.44
2022-10-12T13:25:56.256Z,98948.19
2022-10-12T13:30:08.931Z,98941.63
2022-10-12T13:34:36.215Z,98944.69
2022-10-12T13:38:39.242Z,98942.31
2022-10-12T13:42:41.201Z,98936.41
2022-10-12T13:47:26.376Z,98937.53
2022-10-12T13:51:30.753Z,98929.00
2022-10-12T13:55:32.728Z,98934.09
2022-10-12T13:59:37.819Z,98935.13
2022-10-12T14:03:43.368Z,98940.72
2022-10-12T14:07:47.161Z,98929.84
2022-10-12T14:11:51.320Z,98920.56
2022-10-12T14:15:54.922Z,98925.09
2022-10-12T14:20:13.780Z,98919.97
2022-10-12T14:24:19.344Z,98921.63
2022-10-12T14:28:35.489Z,98915.28
2022-10-12T14:32:44.106Z,98915.69
2022-10-12T14:36:46.094Z,98914.31
2022-10-12T14:40:48.023Z,98913.19
2022-10-12T14:44:50.748Z,98915.72
2022-10-12T14:48:52.694Z,98910.56
2022-10-12T14:53:04.705Z,98917.63
2022-10-12T14:57:14.025Z,98914.88
2022-10-12T15:01:16.269Z,98904.69
2022-10-12T15:05:22.089Z,98906.28
2022-10-12T15:09:24.030Z,98907.66
2022-10-12T15:13:25.987Z,98905.34
2022-10-12T15:17:28.368Z,98900.13
2022-10-12T15:21:30.452Z,98908.63
2022-10-12T15:25:35.503Z,98919.69
2022-10-12T15:29:37.748Z,98916.38
2022-10-12T15:33:43.764Z,98916.59
2022-10-12T15:37:46.330Z,98914.41
2022-10-12T15:41:48.371Z,98927.34
2022-10-12T15:45:50.859Z,98926.41
2022-10-12T15:49:52.944Z,98928.34
2022-10-12T15:53:55.346Z,98930.59
2022-10-12T15:57:58.516Z,98932.81
2022-10-12T16:02:00.545Z,98935.94
2022-10-12T16:06:02.423Z,98934.19
2022-10-12T16:10:04.669Z,98927.31
2022-10-12T16:14:06.853Z,98929.81
2022-10-12T16:18:10.057Z,98927.66
2022-10-12T16:22:12.149Z,98924.66
2022-10-12T16:26:15.462Z,98923.78
2022-10-12T16:30:19.025Z,98928.28
2022-10-12T16:34:20.936Z,98932.19
2022-10-12T16:38:22.909Z,98931.16
2022-10-12T16:42:24.907Z,98932.50
2022-10-12T16:46:26.842Z,98940.22
2022-10-12T16:50:28.815Z,98942.84
2022-10-12T16:54:30.961Z,98940.69
2022-10-12T16:58:33.387Z,98938.78
2022-10-12T17:02:35.631Z,98937.09
2022-10-12T17:06:37.587Z,98939.44
2022-10-12T17:10:44.320Z,98942.72
2022-10-12T17:14:46.798Z,98942.03
2022-10-12T17:18:48.859Z,98951.31
2022-10-12T17:22:50.793Z,98952.53
2022-10-12T17:26:53.628Z,98964.69
2022-10-12T17:30:55.829Z,98956.91
2022-10-12T17:34:57.835Z,98963.50
2022-10-12T17:39:00.047Z,98961.69
2022-10-12T17:43:02.006Z,98970.38
2022-10-12T17:47:04.088Z,98965.28
2022-10-12T17:51:09.794Z,98977.66
2022-10-12T17:55:29.493Z,98979.34
2022-10-12T17:59:33.726Z,98987.44
2022-10-12T18:03:35.698Z,98998.22
2022-10-12T18:07:40.726Z,98995.81
2022-10-12T18:11:44.298Z,98997.41
2022-10-12T18:15:46.392Z,99000.41
2022-10-12T18:19:48.726Z,98999.34
2022-10-12T18:23:51.399Z,99009.94
2022-10-12T18:27:53.311Z,99005.16
2022-10-12T18:31:55.435Z,99005.22
2022-10-12T18:36:06.340Z,99003.13
2022-10-12T18:40:09.177Z,99008.59
2022-10-12T18:44:11.722Z,99006.28
2022-10-12T18:48:13.930Z,99011.44
2022-10-12T18:52:16.206Z,99019.97
2022-10-12T18:56:19.425Z,99025.31
2022-10-12T19:00:21.540Z,99011.97
2022-10-12T19:04:23.644Z,99024.09
2022-10-12T19:08:25.775Z,99015.00
2022-10-12T19:12:27.714Z,99017.56
2022-10-12T19:16:30.381Z,99014.44
2022-10-12T19:20:35.656Z,99017.78
2022-10-12T19:24:37.870Z,99019.72
2022-10-12T19:28:39.904Z,99025.66
2022-10-12T19:32:43.046Z,99025.47
2022-10-12T19:36:45.517Z,99027.41
2022-10-12T19:40:47.878Z,99030.66
2022-10-12T19:44:50.680Z,99031.75
2022-10-12T19:48:55.413Z,99036.09
2022-10-12T19:52:57.498Z,99026.97
2022-10-12T19:56:59.471Z,99034.44
2022-10-12T20:01:04.369Z,99038.94
2022-10-12T20:05:06.701Z,99043.47
2022-10-12T20:09:09.543Z,99045.06
2022-10-12T20:13:11.569Z,99055.19
2022-10-12T20:17:13.676Z,99053.19
2022-10-12T20:21:19.299Z,99060.16
2022-10-12T20:25:21.289Z,99059.44
2022-10-12T20:29:23.310Z,99057.78
2022-10-12T20:33:25.247Z,99055.88
2022-10-12T20:37:27.617Z,99056.16
2022-10-12T20:41:29.961Z,99053.56
2022-10-12T20:45:32.078Z,99047.44
2022-10-12T20:49:34.061Z,99048.34
2022-10-12T20:53:36.623Z,99048.06
2022-10-12T20:57:38.684Z,99050.91
2022-10-12T21:01:40.682Z,99041.03
2022-10-12T21:05:42.916Z,99050.75
2022-10-12T21:09:45.401Z,99049.03
2022-10-12T21:13:47.811Z,99056.59
2022-10-12T21:17:49.740Z,99048.00
2022-10-12T21:21:51.974Z,99051.25
2022-10-12T21:25:54.567Z,99051.44
2022-10-12T21:29:56.552Z,99050.88
2022-10-12T21:34:01.426Z,99041.78
2022-10-12T21:38:04.153Z,99052.75
2022-10-12T21:42:06.202Z,99059.59
2022-10-12T21:46:11.223Z,99054.81
2022-10-12T21:50:13.306Z,99061.41
2022-10-12T21:54:15.379Z,99050.59
2022-10-12T21:58:17.540Z,99048.06
2022-10-12T22:02:20.103Z,99045.31
2022-10-12T22:06:24.230Z,99035.97
2022-10-12T22:10:26.270Z,99046.00
2022-10-12T22:14:28.310Z,99041.66
2022-10-12T22:18:38.582Z,99042.66
2022-10-12T22:22:40.844Z,99034.09
2022-10-12T22:26:43.147Z,99030.94
2022-10-12T22:30:45.549Z,99038.25
2022-10-12T22:34:47.638Z,99044.38
2022-10-12T22:38:49.690Z,99044.84
2022-10-12T22:42:51.841Z,99042.63
2022-10-12T22:46:53.846Z,99047.16
2022-10-12T22:50:56.446Z,99043.09
2022-10-12T22:54:58.425Z,99050.66
2022-10-12T22:59:03.205Z,99048.78
2022-10-12T23:07:34.014Z,99044.91
2022-10-12T23:11:35.927Z,99044.44
2022-10-12T23:15:37.867Z,99038.28
2022-10-12T23:19:40.281Z,99044.19
2022-10-12T23:23:43.791Z,99049.22
2022-10-12T23:27:46.093Z,99053.34
2022-10-12T23:31:48.005Z,99045.78
2022-10-12T23:35:58.011Z,99042.84
2022-10-12T23:39:59.978Z,99033.47
2022-10-12T23:44:01.992Z,99043.78
2022-10-12T23:48:04.465Z,99049.41
2022-10-12T23:52:06.849Z,99037.88
2022-10-12T23:56:08.929Z,99035.19
